KASX/ASX METAR and TAF weather

Enter ICAO airport designator
Station Type Date Time Source
KASX METAR 2019/12/11 16:53 UTC NOAA

KASX 111653Z AUTO 24013KT 10SM CLR M22/M26 A3035 RMK AO2 SLP306 T12171261


Station Type Date Time Source
KASX Decoded METAR 2019/12/11 16:53 UTC NOAA

ASHLAND KENNEDY MEMORIAL, WI, United States (KASX) 46-33N 090-55W 251M
Dec 11, 2019 - 11:53 AM EST / 2019.12.11 1653 UTC
Wind: from the WSW (240 degrees) at 15 MPH (13 KT):0
Visibility: 10 mile(s):0
Sky conditions: clear
Temperature: -7.1 F (-21.7 C)
Windchill: -29 F (-34 C):2
Dew Point: -15.0 F (-26.1 C)
Relative Humidity: 67%
Pressure (altimeter): 30.35 in. Hg (1027 hPa)
ob: KASX 111653Z AUTO 24013KT 10SM CLR M22/M26 A3035 RMK AO2 SLP306 T12171261
cycle: 17

Station Type Date Time Source
KASX TAF UTC NOAA

Error!

Example: see airport list